sensor_id;sensor_type;location;lat;lon;timestamp;temperature;humidity
44990;DHT22;30723;51.206;3.326;2024-02-21T00:02:19;9.80;99.90
44990;DHT22;30723;51.206;3.326;2024-02-21T00:04:45;9.80;99.90
44990;DHT22;30723;51.206;3.326;2024-02-21T00:07:11;9.80;99.90
44990;DHT22;30723;51.206;3.326;2024-02-21T00:09:36;9.80;99.90
44990;DHT22;30723;51.206;3.326;2024-02-21T00:12:02;9.80;99.90
44990;DHT22;30723;51.206;3.326;2024-02-21T00:14:28;9.70;99.90
44990;DHT22;30723;51.206;3.326;2024-02-21T00:16:54;9.60;99.90
44990;DHT22;30723;51.206;3.326;2024-02-21T00:19:20;9.70;99.90
44990;DHT22;30723;51.206;3.326;2024-02-21T00:21:46;9.70;99.90
44990;DHT22;30723;51.206;3.326;2024-02-21T00:24:12;9.70;99.90
44990;DHT22;30723;51.206;3.326;2024-02-21T00:26:37;9.70;99.90
44990;DHT22;30723;51.206;3.326;2024-02-21T00:29:03;9.60;99.90
44990;DHT22;30723;51.206;3.326;2024-02-21T00:31:31;9.60;99.90
44990;DHT22;30723;51.206;3.326;2024-02-21T00:33:57;9.60;99.90
44990;DHT22;30723;51.206;3.326;2024-02-21T00:36:23;9.60;99.90
44990;DHT22;30723;51.206;3.326;2024-02-21T00:38:49;9.60;99.90
44990;DHT22;30723;51.206;3.326;2024-02-21T00:41:15;9.50;99.90
44990;DHT22;30723;51.206;3.326;2024-02-21T00:43:41;9.50;99.90
44990;DHT22;30723;51.206;3.326;2024-02-21T00:46:07;9.60;99.90
44990;DHT22;30723;51.206;3.326;2024-02-21T00:48:33;9.60;99.90
44990;DHT22;30723;51.206;3.326;2024-02-21T00:50:59;9.70;99.90
44990;DHT22;30723;51.206;3.326;2024-02-21T00:53:25;9.60;99.90
44990;DHT22;30723;51.206;3.326;2024-02-21T00:55:51;9.60;99.90
44990;DHT22;30723;51.206;3.326;2024-02-21T00:58:17;9.60;99.90
44990;DHT22;30723;51.206;3.326;2024-02-21T01:00:42;9.60;99.90
44990;DHT22;30723;51.206;3.326;2024-02-21T01:03:08;9.60;99.90
44990;DHT22;30723;51.206;3.326;2024-02-21T01:05:34;9.60;99.90
44990;DHT22;30723;51.206;3.326;2024-02-21T01:08:00;9.60;99.90
44990;DHT22;30723;51.206;3.326;2024-02-21T01:10:25;9.70;99.90
44990;DHT22;30723;51.206;3.326;2024-02-21T01:12:51;9.70;99.90
44990;DHT22;30723;51.206;3.326;2024-02-21T01:15:17;9.60;99.90
44990;DHT22;30723;51.206;3.326;2024-02-21T01:17:43;9.60;99.90
44990;DHT22;30723;51.206;3.326;2024-02-21T01:20:09;9.60;99.90
44990;DHT22;30723;51.206;3.326;2024-02-21T01:22:34;9.60;99.90
44990;DHT22;30723;51.206;3.326;2024-02-21T01:25:00;9.60;99.90
44990;DHT22;30723;51.206;3.326;2024-02-21T01:27:26;9.60;99.90
44990;DHT22;30723;51.206;3.326;2024-02-21T01:29:52;9.50;99.90
44990;DHT22;30723;51.206;3.326;2024-02-21T01:32:18;9.60;99.90
44990;DHT22;30723;51.206;3.326;2024-02-21T01:34:44;9.50;99.90
44990;DHT22;30723;51.206;3.326;2024-02-21T01:37:09;9.50;99.90
44990;DHT22;30723;51.206;3.326;2024-02-21T01:39:35;9.50;99.90
44990;DHT22;30723;51.206;3.326;2024-02-21T01:42:01;9.50;99.90
44990;DHT22;30723;51.206;3.326;2024-02-21T01:44:27;9.40;99.90
44990;DHT22;30723;51.206;3.326;2024-02-21T01:46:53;9.50;99.90
44990;DHT22;30723;51.206;3.326;2024-02-21T01:49:20;9.50;99.90
44990;DHT22;30723;51.206;3.326;2024-02-21T01:51:46;9.50;99.90
44990;DHT22;30723;51.206;3.326;2024-02-21T01:54:14;9.60;99.90
44990;DHT22;30723;51.206;3.326;2024-02-21T01:56:41;9.60;99.90
44990;DHT22;30723;51.206;3.326;2024-02-21T01:59:07;9.60;99.90
44990;DHT22;30723;51.206;3.326;2024-02-21T02:01:33;9.60;99.90
44990;DHT22;30723;51.206;3.326;2024-02-21T02:03:59;9.60;99.90
44990;DHT22;30723;51.206;3.326;2024-02-21T02:06:25;9.60;99.90
44990;DHT22;30723;51.206;3.326;2024-02-21T02:08:51;9.50;99.90
44990;DHT22;30723;51.206;3.326;2024-02-21T02:11:17;9.60;99.90
44990;DHT22;30723;51.206;3.326;2024-02-21T02:13:44;9.60;99.90
44990;DHT22;30723;51.206;3.326;2024-02-21T02:16:09;9.60;99.90
44990;DHT22;30723;51.206;3.326;2024-02-21T02:18:35;9.70;99.90
44990;DHT22;30723;51.206;3.326;2024-02-21T02:21:01;9.70;99.90
44990;DHT22;30723;51.206;3.326;2024-02-21T02:23:30;9.70;99.90
44990;DHT22;30723;51.206;3.326;2024-02-21T02:25:59;9.60;99.90
44990;DHT22;30723;51.206;3.326;2024-02-21T02:28:28;9.60;99.90
44990;DHT22;30723;51.206;3.326;2024-02-21T02:30:54;9.60;99.90
44990;DHT22;30723;51.206;3.326;2024-02-21T02:33:20;9.60;99.90
44990;DHT22;30723;51.206;3.326;2024-02-21T02:35:46;9.70;99.90
44990;DHT22;30723;51.206;3.326;2024-02-21T02:38:12;9.70;99.90
44990;DHT22;30723;51.206;3.326;2024-02-21T02:40:39;9.80;99.90
44990;DHT22;30723;51.206;3.326;2024-02-21T02:43:06;9.80;99.90
44990;DHT22;30723;51.206;3.326;2024-02-21T02:45:32;9.80;99.90
44990;DHT22;30723;51.206;3.326;2024-02-21T02:47:58;9.80;99.90
44990;DHT22;30723;51.206;3.326;2024-02-21T02:50:25;9.80;99.90
44990;DHT22;30723;51.206;3.326;2024-02-21T02:52:51;9.80;99.90
44990;DHT22;30723;51.206;3.326;2024-02-21T02:55:16;9.80;99.90
44990;DHT22;30723;51.206;3.326;2024-02-21T02:57:44;9.80;99.90
44990;DHT22;30723;51.206;3.326;2024-02-21T03:00:12;9.80;99.90
44990;DHT22;30723;51.206;3.326;2024-02-21T03:02:39;9.70;99.90
44990;DHT22;30723;51.206;3.326;2024-02-21T03:05:15;9.70;99.90
44990;DHT22;30723;51.206;3.326;2024-02-21T03:07:42;9.70;99.90
44990;DHT22;30723;51.206;3.326;2024-02-21T03:10:08;9.70;99.90
44990;DHT22;30723;51.206;3.326;2024-02-21T03:12:34;9.80;99.90
44990;DHT22;30723;51.206;3.326;2024-02-21T03:15:00;9.80;99.90
44990;DHT22;30723;51.206;3.326;2024-02-21T03:17:26;9.80;99.90
44990;DHT22;30723;51.206;3.326;2024-02-21T03:19:54;9.80;99.90
44990;DHT22;30723;51.206;3.326;2024-02-21T03:22:23;9.80;99.90
44990;DHT22;30723;51.206;3.326;2024-02-21T03:24:49;9.80;99.90
44990;DHT22;30723;51.206;3.326;2024-02-21T03:27:15;9.80;99.90
44990;DHT22;30723;51.206;3.326;2024-02-21T03:29:43;9.80;99.90
44990;DHT22;30723;51.206;3.326;2024-02-21T03:32:09;9.80;99.90
44990;DHT22;30723;51.206;3.326;2024-02-21T03:34:35;9.80;99.90
44990;DHT22;30723;51.206;3.326;2024-02-21T03:37:01;9.90;99.90
44990;DHT22;30723;51.206;3.326;2024-02-21T03:39:27;9.90;99.90
44990;DHT22;30723;51.206;3.326;2024-02-21T03:41:53;9.80;99.90
44990;DHT22;30723;51.206;3.326;2024-02-21T03:44:19;9.80;99.90
44990;DHT22;30723;51.206;3.326;2024-02-21T03:46:44;9.90;99.90
44990;DHT22;30723;51.206;3.326;2024-02-21T03:49:10;9.80;99.90
44990;DHT22;30723;51.206;3.326;2024-02-21T03:51:37;9.90;99.90
44990;DHT22;30723;51.206;3.326;2024-02-21T03:54:03;9.90;99.90
44990;DHT22;30723;51.206;3.326;2024-02-21T03:56:28;9.80;99.90
44990;DHT22;30723;51.206;3.326;2024-02-21T03:58:54;9.90;99.90
44990;DHT22;30723;51.206;3.326;2024-02-21T04:01:20;9.90;99.90
44990;DHT22;30723;51.206;3.326;2024-02-21T04:03:46;9.90;99.90
44990;DHT22;30723;51.206;3.326;2024-02-21T04:06:12;9.90;99.90
44990;DHT22;30723;51.206;3.326;2024-02-21T04:08:39;9.90;99.90
44990;DHT22;30723;51.206;3.326;2024-02-21T04:11:04;9.90;99.90
44990;DHT22;30723;51.206;3.326;2024-02-21T04:13:30;9.90;99.90
44990;DHT22;30723;51.206;3.326;2024-02-21T04:15:56;9.90;99.90
44990;DHT22;30723;51.206;3.326;2024-02-21T04:18:22;9.90;99.90
44990;DHT22;30723;51.206;3.326;2024-02-21T04:20:48;9.80;99.90
44990;DHT22;30723;51.206;3.326;2024-02-21T04:23:14;9.80;99.90
44990;DHT22;30723;51.206;3.326;2024-02-21T04:25:40;9.80;99.90
44990;DHT22;30723;51.206;3.326;2024-02-21T04:28:06;9.80;99.90
44990;DHT22;30723;51.206;3.326;2024-02-21T04:30:32;9.80;99.90
44990;DHT22;30723;51.206;3.326;2024-02-21T04:32:57;9.80;99.90
44990;DHT22;30723;51.206;3.326;2024-02-21T04:35:23;9.80;99.90
44990;DHT22;30723;51.206;3.326;2024-02-21T04:37:49;9.80;99.90
44990;DHT22;30723;51.206;3.326;2024-02-21T04:40:15;9.80;99.90
44990;DHT22;30723;51.206;3.326;2024-02-21T04:42:42;9.80;99.90
44990;DHT22;30723;51.206;3.326;2024-02-21T04:45:08;9.80;99.90
44990;DHT22;30723;51.206;3.326;2024-02-21T04:47:34;9.80;99.90
44990;DHT22;30723;51.206;3.326;2024-02-21T04:50:00;9.90;99.90
44990;DHT22;30723;51.206;3.326;2024-02-21T04:52:26;9.90;99.90
44990;DHT22;30723;51.206;3.326;2024-02-21T04:54:51;9.90;99.90
44990;DHT22;30723;51.206;3.326;2024-02-21T04:57:17;9.90;99.90
44990;DHT22;30723;51.206;3.326;2024-02-21T04:59:46;9.90;99.90
44990;DHT22;30723;51.206;3.326;2024-02-21T05:02:15;9.90;99.90
44990;DHT22;30723;51.206;3.326;2024-02-21T05:04:42;9.90;99.90
44990;DHT22;30723;51.206;3.326;2024-02-21T05:07:08;9.90;99.90
44990;DHT22;30723;51.206;3.326;2024-02-21T05:09:36;10.00;99.90
44990;DHT22;30723;51.206;3.326;2024-02-21T05:12:02;9.90;99.90
44990;DHT22;30723;51.206;3.326;2024-02-21T05:14:28;9.90;99.90
44990;DHT22;30723;51.206;3.326;2024-02-21T05:16:54;9.80;99.90
44990;DHT22;30723;51.206;3.326;2024-02-21T05:19:19;9.90;99.90
44990;DHT22;30723;51.206;3.326;2024-02-21T05:21:45;9.80;99.90
44990;DHT22;30723;51.206;3.326;2024-02-21T05:24:11;9.90;99.90
44990;DHT22;30723;51.206;3.326;2024-02-21T05:26:37;9.80;99.90
44990;DHT22;30723;51.206;3.326;2024-02-21T05:29:03;9.90;99.90
44990;DHT22;30723;51.206;3.326;2024-02-21T05:34:17;9.80;99.90
44990;DHT22;30723;51.206;3.326;2024-02-21T05:36:45;9.90;99.90
44990;DHT22;30723;51.206;3.326;2024-02-21T05:39:12;9.90;99.90
44990;DHT22;30723;51.206;3.326;2024-02-21T05:41:37;10.00;99.90
44990;DHT22;30723;51.206;3.326;2024-02-21T05:44:03;9.90;99.90
44990;DHT22;30723;51.206;3.326;2024-02-21T05:46:29;9.90;99.90
44990;DHT22;30723;51.206;3.326;2024-02-21T05:48:55;9.90;99.90
44990;DHT22;30723;51.206;3.326;2024-02-21T05:51:20;9.90;99.90
44990;DHT22;30723;51.206;3.326;2024-02-21T05:53:46;10.00;99.90
44990;DHT22;30723;51.206;3.326;2024-02-21T05:56:13;9.90;99.90
44990;DHT22;30723;51.206;3.326;2024-02-21T05:58:39;10.00;99.90
44990;DHT22;30723;51.206;3.326;2024-02-21T06:01:06;10.00;99.90
44990;DHT22;30723;51.206;3.326;2024-02-21T06:03:35;10.00;99.90
44990;DHT22;30723;51.206;3.326;2024-02-21T06:06:04;9.90;99.90
44990;DHT22;30723;51.206;3.326;2024-02-21T06:08:30;9.80;99.90
44990;DHT22;30723;51.206;3.326;2024-02-21T06:10:56;9.80;99.90
44990;DHT22;30723;51.206;3.326;2024-02-21T06:13:23;9.90;99.90
44990;DHT22;30723;51.206;3.326;2024-02-21T06:15:49;9.90;99.90
44990;DHT22;30723;51.206;3.326;2024-02-21T06:18:18;10.00;99.90
44990;DHT22;30723;51.206;3.326;2024-02-21T06:20:45;9.90;99.90
44990;DHT22;30723;51.206;3.326;2024-02-21T06:23:12;10.00;99.90
44990;DHT22;30723;51.206;3.326;2024-02-21T06:25:38;10.00;99.90
44990;DHT22;30723;51.206;3.326;2024-02-21T06:28:05;10.00;99.90
44990;DHT22;30723;51.206;3.326;2024-02-21T06:30:30;9.90;99.90
44990;DHT22;30723;51.206;3.326;2024-02-21T06:32:56;10.00;99.90
44990;DHT22;30723;51.206;3.326;2024-02-21T06:35:22;10.00;99.90
44990;DHT22;30723;51.206;3.326;2024-02-21T06:37:51;10.00;99.90
44990;DHT22;30723;51.206;3.326;2024-02-21T06:40:20;10.00;99.90
44990;DHT22;30723;51.206;3.326;2024-02-21T06:42:46;10.10;99.90
44990;DHT22;30723;51.206;3.326;2024-02-21T06:45:12;10.00;99.90
44990;DHT22;30723;51.206;3.326;2024-02-21T06:47:38;9.90;99.90
44990;DHT22;30723;51.206;3.326;2024-02-21T06:50:04;9.90;99.90
44990;DHT22;30723;51.206;3.326;2024-02-21T06:52:30;10.00;99.90
44990;DHT22;30723;51.206;3.326;2024-02-21T06:54:56;9.90;99.90
44990;DHT22;30723;51.206;3.326;2024-02-21T06:57:22;9.90;99.90
44990;DHT22;30723;51.206;3.326;2024-02-21T06:59:48;9.90;99.90
44990;DHT22;30723;51.206;3.326;2024-02-21T07:02:14;9.90;99.90
44990;DHT22;30723;51.206;3.326;2024-02-21T07:04:40;9.80;99.90
44990;DHT22;30723;51.206;3.326;2024-02-21T07:07:05;9.80;99.90
44990;DHT22;30723;51.206;3.326;2024-02-21T07:09:33;9.80;99.90
44990;DHT22;30723;51.206;3.326;2024-02-21T07:11:59;9.80;99.90
44990;DHT22;30723;51.206;3.326;2024-02-21T07:14:28;9.90;99.90
44990;DHT22;30723;51.206;3.326;2024-02-21T07:16:54;9.90;99.90
44990;DHT22;30723;51.206;3.326;2024-02-21T07:19:20;9.80;99.90
44990;DHT22;30723;51.206;3.326;2024-02-21T07:21:45;9.80;99.90
44990;DHT22;30723;51.206;3.326;2024-02-21T07:24:11;9.80;99.90
44990;DHT22;30723;51.206;3.326;2024-02-21T07:26:41;9.90;99.90
44990;DHT22;30723;51.206;3.326;2024-02-21T07:29:08;9.90;99.90
44990;DHT22;30723;51.206;3.326;2024-02-21T07:31:43;9.90;99.90
44990;DHT22;30723;51.206;3.326;2024-02-21T07:34:09;9.80;99.90
44990;DHT22;30723;51.206;3.326;2024-02-21T07:36:35;9.90;99.90
44990;DHT22;30723;51.206;3.326;2024-02-21T07:39:03;9.90;99.90
44990;DHT22;30723;51.206;3.326;2024-02-21T07:41:30;9.90;99.90
44990;DHT22;30723;51.206;3.326;2024-02-21T07:43:56;9.90;99.90
44990;DHT22;30723;51.206;3.326;2024-02-21T07:46:22;9.90;99.90
44990;DHT22;30723;51.206;3.326;2024-02-21T07:48:47;9.90;99.90
44990;DHT22;30723;51.206;3.326;2024-02-21T07:51:13;9.90;99.90
44990;DHT22;30723;51.206;3.326;2024-02-21T07:53:39;9.90;99.90
44990;DHT22;30723;51.206;3.326;2024-02-21T07:56:13;9.80;99.90
44990;DHT22;30723;51.206;3.326;2024-02-21T07:58:40;9.90;99.90
44990;DHT22;30723;51.206;3.326;2024-02-21T08:01:06;9.90;99.90
44990;DHT22;30723;51.206;3.326;2024-02-21T08:03:32;9.80;99.90
44990;DHT22;30723;51.206;3.326;2024-02-21T08:05:57;9.90;99.90
44990;DHT22;30723;51.206;3.326;2024-02-21T08:08:23;9.80;99.90
44990;DHT22;30723;51.206;3.326;2024-02-21T08:10:50;9.90;99.90
44990;DHT22;30723;51.206;3.326;2024-02-21T08:13:16;9.90;99.90
44990;DHT22;30723;51.206;3.326;2024-02-21T08:15:42;9.90;99.90
44990;DHT22;30723;51.206;3.326;2024-02-21T08:18:08;9.90;99.90
44990;DHT22;30723;51.206;3.326;2024-02-21T08:20:34;9.80;99.90
44990;DHT22;30723;51.206;3.326;2024-02-21T08:23:00;9.80;99.90
44990;DHT22;30723;51.206;3.326;2024-02-21T08:25:26;9.80;99.90
44990;DHT22;30723;51.206;3.326;2024-02-21T08:27:55;9.80;99.90
44990;DHT22;30723;51.206;3.326;2024-02-21T08:30:21;9.90;99.90
44990;DHT22;30723;51.206;3.326;2024-02-21T08:32:46;9.90;99.90
44990;DHT22;30723;51.206;3.326;2024-02-21T08:35:12;9.90;99.90
44990;DHT22;30723;51.206;3.326;2024-02-21T08:37:38;9.90;99.90
44990;DHT22;30723;51.206;3.326;2024-02-21T08:40:04;9.90;99.90
44990;DHT22;30723;51.206;3.326;2024-02-21T08:42:35;9.90;99.90
44990;DHT22;30723;51.206;3.326;2024-02-21T08:45:03;9.90;99.90
44990;DHT22;30723;51.206;3.326;2024-02-21T08:47:28;9.90;99.90
44990;DHT22;30723;51.206;3.326;2024-02-21T08:49:54;10.00;99.90
44990;DHT22;30723;51.206;3.326;2024-02-21T08:52:20;9.90;99.90
44990;DHT22;30723;51.206;3.326;2024-02-21T08:54:46;10.00;99.90
44990;DHT22;30723;51.206;3.326;2024-02-21T08:57:11;9.90;99.90
44990;DHT22;30723;51.206;3.326;2024-02-21T08:59:39;10.00;99.90
44990;DHT22;30723;51.206;3.326;2024-02-21T09:02:05;10.00;99.90
44990;DHT22;30723;51.206;3.326;2024-02-21T09:04:33;10.00;99.90
44990;DHT22;30723;51.206;3.326;2024-02-21T09:06:59;10.00;99.90
44990;DHT22;30723;51.206;3.326;2024-02-21T09:09:25;9.90;99.90
44990;DHT22;30723;51.206;3.326;2024-02-21T09:11:53;10.00;99.90
44990;DHT22;30723;51.206;3.326;2024-02-21T09:14:19;9.90;99.90
44990;DHT22;30723;51.206;3.326;2024-02-21T09:16:45;10.00;99.90
44990;DHT22;30723;51.206;3.326;2024-02-21T09:19:10;10.10;99.90
44990;DHT22;30723;51.206;3.326;2024-02-21T09:21:39;10.10;99.90
44990;DHT22;30723;51.206;3.326;2024-02-21T09:24:05;10.10;99.90
44990;DHT22;30723;51.206;3.326;2024-02-21T09:26:31;10.10;99.90
44990;DHT22;30723;51.206;3.326;2024-02-21T09:28:57;10.10;99.90
44990;DHT22;30723;51.206;3.326;2024-02-21T09:31:23;10.10;99.90
44990;DHT22;30723;51.206;3.326;2024-02-21T09:33:49;10.10;99.90
44990;DHT22;30723;51.206;3.326;2024-02-21T09:36:15;10.00;99.90
44990;DHT22;30723;51.206;3.326;2024-02-21T09:38:41;10.10;99.90
44990;DHT22;30723;51.206;3.326;2024-02-21T09:43:37;10.10;99.90
44990;DHT22;30723;51.206;3.326;2024-02-21T09:46:05;10.10;99.90
44990;DHT22;30723;51.206;3.326;2024-02-21T09:49:04;10.20;99.90
44990;DHT22;30723;51.206;3.326;2024-02-21T09:51:35;10.20;99.90
44990;DHT22;30723;51.206;3.326;2024-02-21T09:54:03;10.20;99.90
44990;DHT22;30723;51.206;3.326;2024-02-21T09:56:28;10.30;99.90
44990;DHT22;30723;51.206;3.326;2024-02-21T09:58:55;10.30;99.90
44990;DHT22;30723;51.206;3.326;2024-02-21T10:01:21;10.30;99.90
44990;DHT22;30723;51.206;3.326;2024-02-21T10:03:47;10.30;99.90
44990;DHT22;30723;51.206;3.326;2024-02-21T10:06:13;10.40;99.90
44990;DHT22;30723;51.206;3.326;2024-02-21T10:08:39;10.50;99.90
44990;DHT22;30723;51.206;3.326;2024-02-21T10:11:05;10.50;99.90
44990;DHT22;30723;51.206;3.326;2024-02-21T10:13:31;10.60;99.90
44990;DHT22;30723;51.206;3.326;2024-02-21T10:16:07;10.70;99.90
44990;DHT22;30723;51.206;3.326;2024-02-21T10:18:34;10.90;99.90
44990;DHT22;30723;51.206;3.326;2024-02-21T10:21:04;10.90;99.90
44990;DHT22;30723;51.206;3.326;2024-02-21T10:23:44;11.00;99.90
44990;DHT22;30723;51.206;3.326;2024-02-21T10:26:10;11.00;99.90
44990;DHT22;30723;51.206;3.326;2024-02-21T10:28:37;11.00;99.90
44990;DHT22;30723;51.206;3.326;2024-02-21T10:31:08;10.90;99.90
44990;DHT22;30723;51.206;3.326;2024-02-21T10:33:34;10.90;99.90
44990;DHT22;30723;51.206;3.326;2024-02-21T10:36:10;10.80;99.90
44990;DHT22;30723;51.206;3.326;2024-02-21T10:38:39;10.80;99.90
44990;DHT22;30723;51.206;3.326;2024-02-21T10:41:14;10.90;99.90
44990;DHT22;30723;51.206;3.326;2024-02-21T10:43:48;10.80;99.90
44990;DHT22;30723;51.206;3.326;2024-02-21T10:46:19;10.80;99.90
44990;DHT22;30723;51.206;3.326;2024-02-21T10:48:46;10.80;99.90
44990;DHT22;30723;51.206;3.326;2024-02-21T10:51:20;10.70;99.90
44990;DHT22;30723;51.206;3.326;2024-02-21T10:56:38;10.60;99.90
44990;DHT22;30723;51.206;3.326;2024-02-21T10:59:06;10.70;99.90
44990;DHT22;30723;51.206;3.326;2024-02-21T11:01:32;10.70;99.90
44990;DHT22;30723;51.206;3.326;2024-02-21T11:04:06;10.70;99.90
44990;DHT22;30723;51.206;3.326;2024-02-21T11:06:37;10.70;99.90
44990;DHT22;30723;51.206;3.326;2024-02-21T11:09:09;10.70;99.90
44990;DHT22;30723;51.206;3.326;2024-02-21T11:11:35;10.60;99.90
44990;DHT22;30723;51.206;3.326;2024-02-21T11:14:10;10.60;99.90
44990;DHT22;30723;51.206;3.326;2024-02-21T11:16:40;10.60;99.90
44990;DHT22;30723;51.206;3.326;2024-02-21T11:19:07;10.50;99.90
44990;DHT22;30723;51.206;3.326;2024-02-21T11:21:34;10.60;99.90
44990;DHT22;30723;51.206;3.326;2024-02-21T11:24:04;10.50;99.90
44990;DHT22;30723;51.206;3.326;2024-02-21T11:26:31;10.50;99.90
44990;DHT22;30723;51.206;3.326;2024-02-21T11:29:01;10.60;99.90
44990;DHT22;30723;51.206;3.326;2024-02-21T11:31:41;10.60;99.90
44990;DHT22;30723;51.206;3.326;2024-02-21T11:34:10;10.70;99.90
44990;DHT22;30723;51.206;3.326;2024-02-21T11:36:46;10.70;99.90
44990;DHT22;30723;51.206;3.326;2024-02-21T11:39:11;10.70;99.90
44990;DHT22;30723;51.206;3.326;2024-02-21T11:41:37;10.70;99.90
44990;DHT22;30723;51.206;3.326;2024-02-21T11:44:03;10.70;99.90
44990;DHT22;30723;51.206;3.326;2024-02-21T11:46:29;10.70;99.90
44990;DHT22;30723;51.206;3.326;2024-02-21T11:48:55;10.70;99.90
44990;DHT22;30723;51.206;3.326;2024-02-21T11:51:24;10.70;99.90
44990;DHT22;30723;51.206;3.326;2024-02-21T11:53:54;10.60;99.90
44990;DHT22;30723;51.206;3.326;2024-02-21T11:56:19;10.50;99.90
44990;DHT22;30723;51.206;3.326;2024-02-21T11:58:46;10.50;99.90
44990;DHT22;30723;51.206;3.326;2024-02-21T12:01:15;10.50;99.90
44990;DHT22;30723;51.206;3.326;2024-02-21T12:03:42;10.50;99.90
44990;DHT22;30723;51.206;3.326;2024-02-21T12:06:16;10.50;99.90
44990;DHT22;30723;51.206;3.326;2024-02-21T12:08:45;10.50;99.90
44990;DHT22;30723;51.206;3.326;2024-02-21T12:11:19;10.50;99.90
44990;DHT22;30723;51.206;3.326;2024-02-21T12:13:46;10.60;99.90
44990;DHT22;30723;51.206;3.326;2024-02-21T12:16:15;10.60;99.90
44990;DHT22;30723;51.206;3.326;2024-02-21T12:18:42;10.60;99.90
44990;DHT22;30723;51.206;3.326;2024-02-21T12:21:07;10.70;99.90
44990;DHT22;30723;51.206;3.326;2024-02-21T12:23:38;10.70;99.90
44990;DHT22;30723;51.206;3.326;2024-02-21T12:26:04;10.70;99.90
44990;DHT22;30723;51.206;3.326;2024-02-21T12:28:30;10.70;99.90
44990;DHT22;30723;51.206;3.326;2024-02-21T12:30:56;10.80;99.90
44990;DHT22;30723;51.206;3.326;2024-02-21T12:33:22;10.90;99.90
44990;DHT22;30723;51.206;3.326;2024-02-21T12:35:47;10.80;99.90
44990;DHT22;30723;51.206;3.326;2024-02-21T12:38:14;10.80;99.90
44990;DHT22;30723;51.206;3.326;2024-02-21T12:40:40;10.80;99.90
44990;DHT22;30723;51.206;3.326;2024-02-21T12:43:06;10.70;99.90
44990;DHT22;30723;51.206;3.326;2024-02-21T12:45:32;10.80;99.90
44990;DHT22;30723;51.206;3.326;2024-02-21T12:47:59;10.70;99.90
44990;DHT22;30723;51.206;3.326;2024-02-21T12:50:24;10.70;99.90
44990;DHT22;30723;51.206;3.326;2024-02-21T12:52:51;10.70;99.90
44990;DHT22;30723;51.206;3.326;2024-02-21T12:55:17;10.60;99.90
44990;DHT22;30723;51.206;3.326;2024-02-21T12:57:43;10.50;99.90
44990;DHT22;30723;51.206;3.326;2024-02-21T13:00:09;10.30;99.90
44990;DHT22;30723;51.206;3.326;2024-02-21T13:02:36;10.30;99.90
44990;DHT22;30723;51.206;3.326;2024-02-21T13:05:02;10.20;99.90
44990;DHT22;30723;51.206;3.326;2024-02-21T13:07:31;10.20;99.90
44990;DHT22;30723;51.206;3.326;2024-02-21T13:09:58;10.10;99.90
44990;DHT22;30723;51.206;3.326;2024-02-21T13:12:24;10.10;99.90
44990;DHT22;30723;51.206;3.326;2024-02-21T13:14:51;10.00;99.90
44990;DHT22;30723;51.206;3.326;2024-02-21T13:17:17;10.00;99.90
44990;DHT22;30723;51.206;3.326;2024-02-21T13:19:43;10.00;99.90
44990;DHT22;30723;51.206;3.326;2024-02-21T13:22:09;9.90;99.90
44990;DHT22;30723;51.206;3.326;2024-02-21T13:24:35;9.90;99.90
44990;DHT22;30723;51.206;3.326;2024-02-21T13:27:00;9.90;99.90
44990;DHT22;30723;51.206;3.326;2024-02-21T13:29:27;9.90;99.90
44990;DHT22;30723;51.206;3.326;2024-02-21T13:31:54;9.90;99.90
44990;DHT22;30723;51.206;3.326;2024-02-21T13:34:19;9.90;99.90
44990;DHT22;30723;51.206;3.326;2024-02-21T13:36:45;9.80;99.90
44990;DHT22;30723;51.206;3.326;2024-02-21T13:39:11;9.90;99.90
44990;DHT22;30723;51.206;3.326;2024-02-21T13:41:41;9.80;99.90
44990;DHT22;30723;51.206;3.326;2024-02-21T13:44:07;9.80;99.90
44990;DHT22;30723;51.206;3.326;2024-02-21T13:46:35;9.80;99.90
44990;DHT22;30723;51.206;3.326;2024-02-21T13:49:05;9.70;99.90
44990;DHT22;30723;51.206;3.326;2024-02-21T13:51:35;9.70;99.90
44990;DHT22;30723;51.206;3.326;2024-02-21T13:54:02;9.70;99.90
44990;DHT22;30723;51.206;3.326;2024-02-21T13:56:30;9.70;99.90
44990;DHT22;30723;51.206;3.326;2024-02-21T13:58:55;9.70;99.90
44990;DHT22;30723;51.206;3.326;2024-02-21T14:01:21;9.70;99.90
44990;DHT22;30723;51.206;3.326;2024-02-21T14:03:47;9.70;99.90
44990;DHT22;30723;51.206;3.326;2024-02-21T14:06:13;9.70;99.90
44990;DHT22;30723;51.206;3.326;2024-02-21T14:08:39;9.70;99.90
44990;DHT22;30723;51.206;3.326;2024-02-21T14:11:06;9.70;99.90
44990;DHT22;30723;51.206;3.326;2024-02-21T14:13:32;9.70;99.90
44990;DHT22;30723;51.206;3.326;2024-02-21T14:15:58;9.70;99.90
44990;DHT22;30723;51.206;3.326;2024-02-21T14:18:24;9.70;99.90
44990;DHT22;30723;51.206;3.326;2024-02-21T14:20:49;9.70;99.90
44990;DHT22;30723;51.206;3.326;2024-02-21T14:23:15;9.70;99.90
44990;DHT22;30723;51.206;3.326;2024-02-21T14:25:41;9.70;99.90
44990;DHT22;30723;51.206;3.326;2024-02-21T14:28:08;9.70;99.90
44990;DHT22;30723;51.206;3.326;2024-02-21T14:30:36;9.70;99.90
44990;DHT22;30723;51.206;3.326;2024-02-21T14:33:02;9.60;99.90
44990;DHT22;30723;51.206;3.326;2024-02-21T14:35:28;9.70;99.90
44990;DHT22;30723;51.206;3.326;2024-02-21T14:37:54;9.70;99.90
44990;DHT22;30723;51.206;3.326;2024-02-21T14:40:22;9.70;99.90
44990;DHT22;30723;51.206;3.326;2024-02-21T14:42:48;9.70;99.90
44990;DHT22;30723;51.206;3.326;2024-02-21T14:45:14;9.70;99.90
44990;DHT22;30723;51.206;3.326;2024-02-21T14:47:40;9.70;99.90
44990;DHT22;30723;51.206;3.326;2024-02-21T14:50:06;9.70;99.90
44990;DHT22;30723;51.206;3.326;2024-02-21T14:52:32;9.70;99.90
44990;DHT22;30723;51.206;3.326;2024-02-21T14:54:58;9.70;99.90
44990;DHT22;30723;51.206;3.326;2024-02-21T14:57:25;9.70;99.90
44990;DHT22;30723;51.206;3.326;2024-02-21T14:59:51;9.70;99.90
44990;DHT22;30723;51.206;3.326;2024-02-21T15:02:24;9.70;99.90
44990;DHT22;30723;51.206;3.326;2024-02-21T15:04:50;9.70;99.90
44990;DHT22;30723;51.206;3.326;2024-02-21T15:07:17;9.70;99.90
44990;DHT22;30723;51.206;3.326;2024-02-21T15:09:43;9.70;99.90
44990;DHT22;30723;51.206;3.326;2024-02-21T15:12:09;9.70;99.90
44990;DHT22;30723;51.206;3.326;2024-02-21T15:14:35;9.70;99.90
44990;DHT22;30723;51.206;3.326;2024-02-21T15:17:01;9.70;99.90
44990;DHT22;30723;51.206;3.326;2024-02-21T15:19:26;9.70;99.90
44990;DHT22;30723;51.206;3.326;2024-02-21T15:21:52;9.70;99.90
44990;DHT22;30723;51.206;3.326;2024-02-21T15:24:19;9.70;99.90
44990;DHT22;30723;51.206;3.326;2024-02-21T15:26:45;9.80;99.90
44990;DHT22;30723;51.206;3.326;2024-02-21T15:29:11;9.80;99.90
44990;DHT22;30723;51.206;3.326;2024-02-21T15:31:36;9.80;99.90
44990;DHT22;30723;51.206;3.326;2024-02-21T15:34:03;9.80;99.90
44990;DHT22;30723;51.206;3.326;2024-02-21T15:36:28;9.80;99.90
44990;DHT22;30723;51.206;3.326;2024-02-21T15:38:54;9.80;99.90
44990;DHT22;30723;51.206;3.326;2024-02-21T15:41:20;9.80;99.90
44990;DHT22;30723;51.206;3.326;2024-02-21T15:43:47;9.80;99.90
44990;DHT22;30723;51.206;3.326;2024-02-21T15:46:13;9.80;99.90
44990;DHT22;30723;51.206;3.326;2024-02-21T15:48:38;9.80;99.90